createdAt,value
2022-08-23T00:01:33.752Z,12.87
2022-08-23T00:04:05.709Z,12.79
2022-08-23T00:06:35.735Z,12.75
2022-08-23T00:09:04.946Z,12.69
2022-08-23T00:11:37.431Z,12.72
2022-08-23T00:14:10.924Z,12.68
2022-08-23T00:16:41.123Z,12.59
2022-08-23T00:19:13.472Z,12.60
2022-08-23T00:21:44.073Z,12.57
2022-08-23T00:24:14.770Z,12.51
2022-08-23T00:27:01.521Z,12.50
2022-08-23T00:29:42.540Z,12.49
2022-08-23T00:32:15.897Z,12.48
2022-08-23T00:34:44.239Z,12.47
2022-08-23T00:37:14.841Z,12.42
2022-08-23T00:39:43.629Z,12.31
2022-08-23T00:42:37.250Z,12.32
2022-08-23T00:45:24.591Z,12.41
2022-08-23T00:47:54.596Z,12.49
2022-08-23T00:50:28.468Z,12.44
2022-08-23T00:53:12.077Z,12.50
2022-08-23T00:55:43.540Z,12.46
2022-08-23T00:58:14.555Z,12.37
2022-08-23T01:00:42.889Z,12.33
2022-08-23T01:03:14.549Z,12.21
2022-08-23T01:06:02.606Z,12.16
2022-08-23T01:08:35.548Z,12.14
2022-08-23T01:11:10.600Z,12.07
2022-08-23T01:13:46.414Z,12.03
2022-08-23T01:16:22.728Z,11.91
2022-08-23T01:18:52.888Z,11.78
2022-08-23T01:21:32.251Z,11.87
2022-08-23T01:24:07.892Z,12.00
2022-08-23T01:26:36.234Z,12.17
2022-08-23T01:29:08.163Z,12.28
2022-08-23T01:31:37.712Z,12.23
2022-08-23T01:34:10.500Z,12.18
2022-08-23T01:36:39.500Z,12.02
2022-08-23T01:39:09.208Z,11.99
2022-08-23T01:41:38.811Z,11.90
2022-08-23T01:44:09.137Z,11.87
2022-08-23T01:46:38.979Z,11.94
2022-08-23T01:49:08.473Z,11.97
2022-08-23T01:51:37.603Z,12.02
2022-08-23T01:54:08.460Z,12.10
2022-08-23T01:56:39.527Z,12.02
2022-08-23T01:59:14.087Z,11.94
2022-08-23T02:01:47.348Z,11.78
2022-08-23T02:04:16.257Z,11.62
2022-08-23T02:06:44.485Z,11.58
2022-08-23T02:09:19.483Z,11.61
2022-08-23T02:11:48.880Z,11.63
2022-08-23T02:14:22.319Z,11.70
2022-08-23T02:17:03.304Z,11.78
2022-08-23T02:19:34.891Z,11.73
2022-08-23T02:22:06.660Z,11.68
2022-08-23T02:24:42.010Z,11.74
2022-08-23T02:27:11.260Z,11.66
2022-08-23T02:29:46.627Z,11.53
2022-08-23T02:32:19.496Z,11.46
2022-08-23T02:37:37.132Z,11.39
2022-08-23T02:40:08.849Z,11.38
2022-08-23T02:42:37.512Z,11.41
2022-08-23T02:45:08.555Z,11.37
2022-08-23T02:47:42.764Z,11.41
2022-08-23T02:50:26.021Z,11.46
2022-08-23T02:52:56.058Z,11.44
2022-08-23T02:55:26.264Z,11.48
2022-08-23T02:57:55.320Z,11.54
2022-08-23T03:00:24.644Z,11.72
2022-08-23T03:02:53.621Z,11.86
2022-08-23T03:05:22.902Z,11.83
2022-08-23T03:07:51.778Z,11.69
2022-08-23T03:10:20.419Z,11.58
2022-08-23T03:12:56.747Z,11.46
2022-08-23T03:15:25.181Z,11.48
2022-08-23T03:17:53.735Z,11.63
2022-08-23T03:20:22.823Z,11.68
2022-08-23T03:22:55.017Z,11.60
2022-08-23T03:25:26.441Z,11.52
2022-08-23T03:28:15.044Z,11.47
2022-08-23T03:30:46.038Z,11.41
2022-08-23T03:33:15.048Z,11.35
2022-08-23T03:35:45.145Z,11.31
2022-08-23T03:38:15.059Z,11.25
2022-08-23T03:40:45.691Z,11.15
2022-08-23T03:43:15.750Z,11.07
2022-08-23T03:45:44.134Z,10.97
2022-08-23T03:48:12.683Z,10.93
2022-08-23T03:50:41.166Z,10.87
2022-08-23T03:53:10.996Z,10.92
2022-08-23T03:55:43.119Z,11.02
2022-08-23T03:58:17.444Z,11.18
2022-08-23T04:00:45.964Z,11.19
2022-08-23T04:03:14.839Z,11.16
2022-08-23T04:05:59.340Z,11.15
2022-08-23T04:08:33.709Z,10.98
2022-08-23T04:11:04.326Z,10.90
2022-08-23T04:13:35.324Z,10.89
2022-08-23T04:16:05.976Z,10.91
2022-08-23T04:18:36.776Z,10.89
2022-08-23T04:21:13.993Z,10.69
2022-08-23T04:23:43.362Z,10.62
2022-08-23T04:26:12.453Z,10.60
2022-08-23T04:28:44.831Z,10.55
2022-08-23T04:31:15.019Z,10.51
2022-08-23T04:33:45.903Z,10.52
2022-08-23T04:36:23.463Z,10.60
2022-08-23T04:38:53.123Z,10.75
2022-08-23T04:41:39.136Z,10.74
2022-08-23T04:44:08.872Z,10.78
2022-08-23T04:46:37.616Z,10.76
2022-08-23T04:49:05.877Z,10.76
2022-08-23T04:51:34.518Z,10.74
2022-08-23T04:54:03.241Z,10.72
2022-08-23T04:56:44.414Z,10.77
2022-08-23T04:59:21.555Z,10.85
2022-08-23T05:01:50.954Z,10.94
2022-08-23T05:04:19.519Z,11.10
2022-08-23T05:06:48.878Z,11.19
2022-08-23T05:09:20.553Z,11.22
2022-08-23T05:11:49.994Z,11.19
2022-08-23T05:14:20.967Z,11.26
2022-08-23T05:16:51.982Z,11.36
2022-08-23T05:19:20.395Z,11.46
2022-08-23T05:21:49.034Z,11.55
2022-08-23T05:24:18.020Z,11.67
2022-08-23T05:26:48.406Z,11.86
2022-08-23T05:29:17.340Z,11.94
2022-08-23T05:31:51.211Z,11.88
2022-08-23T05:34:22.953Z,11.94
2022-08-23T05:36:57.337Z,12.12
2022-08-23T05:39:36.111Z,12.38
2022-08-23T05:42:10.719Z,12.67
2022-08-23T05:44:39.414Z,12.94
2022-08-23T05:47:15.905Z,13.32
2022-08-23T05:50:19.751Z,13.97
2022-08-23T05:52:51.117Z,14.52
2022-08-23T05:55:22.160Z,14.77
2022-08-23T05:58:17.013Z,14.84
2022-08-23T06:00:46.638Z,14.85
2022-08-23T06:03:17.181Z,14.98
2022-08-23T06:05:48.085Z,15.28
2022-08-23T06:08:17.194Z,15.80
2022-08-23T06:10:45.645Z,16.48
2022-08-23T06:13:27.849Z,16.76
2022-08-23T06:15:57.910Z,17.19
2022-08-23T06:18:29.246Z,17.87
2022-08-23T06:21:11.393Z,18.26
2022-08-23T06:23:49.510Z,18.08
2022-08-23T06:26:22.517Z,18.10
2022-08-23T06:28:54.340Z,18.53
2022-08-23T06:31:39.798Z,19.01
2022-08-23T06:34:18.520Z,19.22
2022-08-23T06:37:09.656Z,19.42
2022-08-23T06:39:58.605Z,19.91
2022-08-23T06:42:44.821Z,19.80
2022-08-23T06:45:14.336Z,19.78
2022-08-23T06:47:49.490Z,20.13
2022-08-23T06:50:19.408Z,20.42
2022-08-23T06:53:07.025Z,20.71
2022-08-23T06:55:47.998Z,20.80
2022-08-23T06:58:20.068Z,21.10
2022-08-23T07:01:48.951Z,21.90
2022-08-23T07:04:28.902Z,20.94
2022-08-23T07:07:17.504Z,20.69
2022-08-23T07:09:45.893Z,20.77
2022-08-23T07:12:14.517Z,20.98
2022-08-23T07:14:45.080Z,21.32
2022-08-23T07:17:14.875Z,21.64
2022-08-23T07:19:44.982Z,21.79
2022-08-23T07:22:15.566Z,21.91
2022-08-23T07:24:45.934Z,22.06
2022-08-23T07:27:15.567Z,21.45
2022-08-23T07:30:00.778Z,21.84
2022-08-23T07:32:29.672Z,22.12
2022-08-23T07:34:59.670Z,22.52
2022-08-23T07:37:31.811Z,22.40
2022-08-23T07:40:03.505Z,22.74
2022-08-23T07:42:34.118Z,22.76
2022-08-23T07:45:02.802Z,23.74
2022-08-23T07:47:33.937Z,23.82
2022-08-23T07:50:02.375Z,23.65
2022-08-23T07:52:33.620Z,23.13
2022-08-23T07:55:03.838Z,23.57
2022-08-23T07:57:58.250Z,24.11
2022-08-23T08:00:37.432Z,24.26
2022-08-23T08:03:28.776Z,24.70
2022-08-23T08:06:12.781Z,24.66
2022-08-23T08:08:43.837Z,25.11
2022-08-23T08:11:16.484Z,25.39
2022-08-23T08:13:48.227Z,25.09
2022-08-23T08:16:24.709Z,25.52
2022-08-23T08:18:55.561Z,25.54
2022-08-23T08:21:45.713Z,25.02
2022-08-23T08:24:40.697Z,25.26
2022-08-23T08:27:14.617Z,25.25
2022-08-23T08:29:45.146Z,25.78
2022-08-23T08:32:14.293Z,26.52
2022-08-23T08:34:43.802Z,26.27
2022-08-23T08:37:13.308Z,26.71
2022-08-23T08:39:46.134Z,26.39
2022-08-23T08:42:44.662Z,27.57
2022-08-23T08:45:19.965Z,27.30
2022-08-23T08:47:54.560Z,27.05
2022-08-23T08:50:33.909Z,27.03
2022-08-23T08:53:10.899Z,26.49
2022-08-23T08:56:03.852Z,27.04
2022-08-23T08:58:50.111Z,27.50
2022-08-23T09:01:22.074Z,27.37
2022-08-23T09:03:52.447Z,27.47
2022-08-23T09:06:31.605Z,27.86
2022-08-23T09:09:19.726Z,28.07
2022-08-23T09:12:02.167Z,28.68
2022-08-23T09:15:07.017Z,28.07
2022-08-23T09:17:45.153Z,27.85
2022-08-23T09:20:18.723Z,28.00
2022-08-23T09:22:58.215Z,28.13
2022-08-23T09:25:31.670Z,28.73
2022-08-23T09:28:09.800Z,28.56
2022-08-23T09:30:50.671Z,28.57
2022-08-23T09:33:26.223Z,28.52
2022-08-23T09:36:18.996Z,28.66
2022-08-23T09:38:58.012Z,27.68
2022-08-23T09:41:36.528Z,28.28
2022-08-23T09:44:09.439Z,29.28
2022-08-23T09:46:42.010Z,29.36
2022-08-23T09:49:30.199Z,29.14
2022-08-23T09:52:26.822Z,28.79
2022-08-23T09:55:05.466Z,29.39
2022-08-23T09:57:40.143Z,29.51
2022-08-23T10:00:26.210Z,29.40
2022-08-23T10:03:16.555Z,28.98
2022-08-23T10:05:54.575Z,29.49
2022-08-23T10:08:28.408Z,29.83
2022-08-23T10:11:13.396Z,30.62
2022-08-23T10:13:44.703Z,31.13
2022-08-23T10:16:29.088Z,31.30
2022-08-23T10:19:20.931Z,30.76
2022-08-23T10:22:02.142Z,29.20
2022-08-23T10:24:46.049Z,29.24
2022-08-23T10:27:50.890Z,29.37
2022-08-23T10:30:28.740Z,30.29
2022-08-23T10:33:09.736Z,29.94
2022-08-23T10:36:04.949Z,29.59
2022-08-23T10:38:47.113Z,29.19
2022-08-23T10:41:46.784Z,30.66
2022-08-23T10:44:29.230Z,30.69
2022-08-23T10:47:16.926Z,30.43
2022-08-23T10:49:50.723Z,30.69
2022-08-23T10:52:28.100Z,30.98
2022-08-23T10:55:06.490Z,31.17
2022-08-23T10:57:42.411Z,30.79
2022-08-23T11:00:18.068Z,30.78
2022-08-23T11:02:59.457Z,30.76
2022-08-23T11:05:38.717Z,30.58
2022-08-23T11:08:36.512Z,30.91
2022-08-23T11:11:43.116Z,31.13
2022-08-23T11:14:27.009Z,30.94
2022-08-23T11:17:03.365Z,30.85
2022-08-23T11:19:52.522Z,30.77
2022-08-23T11:22:25.194Z,30.31
2022-08-23T11:25:03.573Z,31.00
2022-08-23T11:27:41.608Z,31.26
2022-08-23T11:30:50.791Z,30.57
2022-08-23T11:33:35.587Z,30.05
2022-08-23T11:36:21.836Z,31.38
2022-08-23T11:39:13.242Z,31.20
2022-08-23T11:42:07.198Z,31.01
2022-08-23T11:44:48.157Z,31.46
2022-08-23T11:47:31.154Z,30.94
2022-08-23T11:50:27.984Z,30.64
2022-08-23T11:53:25.866Z,31.27
2022-08-23T11:56:35.932Z,31.40
2022-08-23T11:59:38.458Z,30.79
2022-08-23T12:02:37.126Z,31.42
2022-08-23T12:05:21.867Z,31.17
2022-08-23T12:08:17.384Z,31.75
2022-08-23T12:11:09.208Z,32.37
2022-08-23T12:14:01.486Z,31.94
2022-08-23T12:16:49.613Z,31.72
2022-08-23T12:19:35.818Z,31.59
2022-08-23T12:22:14.729Z,31.89
2022-08-23T12:24:52.373Z,31.96
2022-08-23T12:27:33.817Z,32.08
2022-08-23T12:30:10.880Z,32.23
2022-08-23T12:32:54.829Z,32.13
2022-08-23T12:35:41.208Z,32.07
2022-08-23T12:38:16.718Z,31.11
2022-08-23T12:40:50.972Z,31.79
2022-08-23T12:43:27.816Z,32.10
2022-08-23T12:46:00.902Z,31.60
2022-08-23T12:48:46.115Z,31.15
2022-08-23T12:51:14.423Z,31.33
2022-08-23T12:53:46.153Z,31.11
2022-08-23T12:56:22.752Z,32.54
2022-08-23T12:59:05.585Z,32.70
2022-08-23T13:01:38.447Z,32.21
2022-08-23T13:04:13.482Z,32.30
2022-08-23T13:06:47.926Z,32.72
2022-08-23T13:09:23.642Z,32.80
2022-08-23T13:11:53.153Z,30.80
2022-08-23T13:14:31.048Z,31.00
2022-08-23T13:17:13.174Z,31.41
2022-08-23T13:19:47.210Z,31.42
2022-08-23T13:22:25.021Z,31.02
2022-08-23T13:25:28.761Z,31.31
2022-08-23T13:28:03.711Z,31.39
2022-08-23T13:30:36.313Z,31.38
2022-08-23T13:33:25.474Z,32.03
2022-08-23T13:36:13.924Z,31.75
2022-08-23T13:38:45.117Z,30.85
2022-08-23T13:41:31.825Z,30.99
2022-08-23T13:44:09.580Z,32.08
2022-08-23T13:46:48.331Z,31.37
2022-08-23T13:49:21.369Z,31.31
2022-08-23T13:54:43.182Z,30.20
2022-08-23T13:57:16.349Z,30.56
2022-08-23T13:59:51.881Z,30.24
2022-08-23T14:02:24.339Z,29.52
2022-08-23T14:04:52.926Z,29.07
2022-08-23T14:07:22.168Z,29.64
2022-08-23T14:09:54.989Z,30.56
2022-08-23T14:12:28.625Z,30.84
2022-08-23T14:14:57.746Z,29.75
2022-08-23T14:17:26.647Z,29.93
2022-08-23T14:20:32.011Z,30.35
2022-08-23T14:22:44.141Z,30.82
2022-08-23T14:25:15.258Z,30.93
2022-08-23T14:27:46.834Z,31.32
2022-08-23T14:30:29.304Z,31.19
2022-08-23T14:32:59.054Z,30.77
2022-08-23T14:35:28.020Z,30.55
2022-08-23T14:38:05.287Z,30.75
2022-08-23T14:40:37.255Z,31.78
2022-08-23T14:43:06.064Z,31.24
2022-08-23T14:45:34.647Z,31.31
2022-08-23T14:48:03.395Z,31.76
2022-08-23T14:50:31.778Z,31.75
2022-08-23T14:53:03.497Z,31.51
2022-08-23T14:55:32.016Z,31.48
2022-08-23T14:58:01.622Z,32.47
2022-08-23T15:00:30.041Z,31.71
2022-08-23T15:02:58.906Z,31.40
2022-08-23T15:05:27.375Z,31.47
2022-08-23T15:07:55.657Z,31.43
2022-08-23T15:13:21.664Z,31.76
2022-08-23T15:15:55.721Z,31.09
2022-08-23T15:18:24.352Z,30.61
2022-08-23T15:20:53.086Z,30.72
2022-08-23T15:23:22.105Z,29.92
2022-08-23T15:25:51.087Z,29.12
2022-08-23T15:28:23.867Z,29.01
2022-08-23T15:30:52.907Z,28.95
2022-08-23T15:33:25.337Z,28.60
2022-08-23T15:35:55.971Z,28.19
2022-08-23T15:38:26.786Z,27.92
2022-08-23T15:40:56.890Z,27.65
2022-08-23T15:43:34.400Z,27.82
2022-08-23T15:46:06.779Z,27.90
2022-08-23T15:48:38.513Z,28.28
2022-08-23T15:51:07.696Z,28.02
2022-08-23T15:53:39.230Z,27.57
2022-08-23T15:56:13.980Z,28.05
2022-08-23T15:58:44.016Z,28.43
2022-08-23T16:01:13.130Z,28.27
2022-08-23T16:03:43.713Z,27.79
2022-08-23T16:06:14.501Z,27.80
2022-08-23T16:08:48.618Z,27.91
2022-08-23T16:11:16.917Z,27.68
2022-08-23T16:13:50.124Z,27.56
2022-08-23T16:16:24.637Z,27.17
2022-08-23T16:18:55.073Z,26.59
2022-08-23T16:21:26.317Z,26.48
2022-08-23T16:23:55.951Z,26.17
2022-08-23T16:26:34.917Z,26.22
2022-08-23T16:29:10.878Z,26.47
2022-08-23T16:31:39.913Z,26.67
2022-08-23T16:34:10.311Z,26.84
2022-08-23T16:36:41.075Z,26.99
2022-08-23T16:39:10.654Z,26.76
2022-08-23T16:41:39.360Z,26.60
2022-08-23T16:44:09.799Z,26.37
2022-08-23T16:46:41.172Z,26.61
2022-08-23T16:49:10.115Z,26.74
2022-08-23T16:51:38.668Z,26.73
2022-08-23T16:54:08.413Z,26.46
2022-08-23T16:56:39.086Z,26.16
2022-08-23T16:59:13.304Z,26.18
2022-08-23T17:01:49.442Z,25.99
2022-08-23T17:04:18.906Z,25.40
2022-08-23T17:06:47.841Z,25.27
2022-08-23T17:09:16.447Z,25.52
2022-08-23T17:11:45.762Z,25.36
2022-08-23T17:14:16.141Z,25.04
2022-08-23T17:16:45.088Z,24.57
2022-08-23T17:19:15.347Z,24.17
2022-08-23T17:21:45.088Z,23.96
2022-08-23T17:24:13.442Z,23.72
2022-08-23T17:26:41.739Z,23.60
2022-08-23T17:29:10.412Z,23.48
2022-08-23T17:31:40.351Z,23.29
2022-08-23T17:34:09.046Z,23.02
2022-08-23T17:36:41.833Z,22.67
2022-08-23T17:39:19.854Z,22.39
2022-08-23T17:41:49.050Z,22.26
2022-08-23T17:44:20.291Z,22.07
2022-08-23T17:46:51.068Z,21.87
2022-08-23T17:49:21.190Z,21.79
2022-08-23T17:51:49.862Z,21.85
2022-08-23T17:54:18.506Z,21.81
2022-08-23T17:56:50.031Z,21.79
2022-08-23T17:59:19.804Z,21.78
2022-08-23T18:01:49.742Z,21.73
2022-08-23T18:04:18.120Z,21.67
2022-08-23T18:06:47.434Z,21.60
2022-08-23T18:09:16.691Z,21.49
2022-08-23T18:11:46.471Z,21.25
2022-08-23T18:14:14.805Z,21.00
2022-08-23T18:16:44.099Z,20.78
2022-08-23T18:19:15.559Z,20.53
2022-08-23T18:21:45.439Z,20.35
2022-08-23T18:24:14.740Z,20.23
2022-08-23T18:27:01.656Z,20.23
2022-08-23T18:29:34.987Z,20.26
2022-08-23T18:32:07.005Z,20.19
2022-08-23T18:34:37.880Z,20.11
2022-08-23T18:37:07.256Z,20.03
2022-08-23T18:39:35.890Z,19.99
2022-08-23T18:42:09.147Z,19.96
2022-08-23T18:44:37.742Z,19.88
2022-08-23T18:47:06.389Z,19.78
2022-08-23T18:49:37.340Z,19.77
2022-08-23T18:52:07.119Z,19.77
2022-08-23T18:54:37.489Z,19.84
2022-08-23T18:57:06.265Z,19.80
2022-08-23T18:59:34.593Z,19.73
2022-08-23T19:02:02.941Z,19.69
2022-08-23T19:04:31.512Z,19.66
2022-08-23T19:07:01.201Z,19.55
2022-08-23T19:09:30.175Z,19.51
2022-08-23T19:12:00.301Z,19.62
2022-08-23T19:14:29.529Z,19.51
2022-08-23T19:16:58.218Z,19.57
2022-08-23T19:19:26.970Z,19.58
2022-08-23T19:21:55.321Z,19.63
2022-08-23T19:24:25.494Z,19.38
2022-08-23T19:26:54.445Z,19.11
2022-08-23T19:29:23.118Z,18.67
2022-08-23T19:31:51.780Z,18.54
2022-08-23T19:34:22.285Z,18.40
2022-08-23T19:37:00.774Z,18.21
2022-08-23T19:39:32.205Z,18.12
2022-08-23T19:42:00.606Z,17.87
2022-08-23T19:44:31.100Z,17.76
2022-08-23T19:46:59.534Z,17.61
2022-08-23T19:49:28.235Z,17.55
2022-08-23T19:51:56.641Z,17.50
2022-08-23T19:54:25.956Z,17.49
2022-08-23T19:56:59.481Z,17.37
2022-08-23T19:59:31.941Z,17.32
2022-08-23T20:02:00.919Z,17.20
2022-08-23T20:04:32.470Z,17.26
2022-08-23T20:07:02.545Z,17.26
2022-08-23T20:09:33.370Z,17.35
2022-08-23T20:12:03.700Z,17.35
2022-08-23T20:14:34.307Z,17.33
2022-08-23T20:17:06.632Z,17.26
2022-08-23T20:19:36.272Z,17.37
2022-08-23T20:22:23.227Z,17.29
2022-08-23T20:24:53.114Z,17.29
2022-08-23T20:27:25.337Z,17.26
2022-08-23T20:30:01.410Z,17.37
2022-08-23T20:32:31.336Z,17.40
2022-08-23T20:35:00.488Z,17.38
2022-08-23T20:37:29.732Z,17.34
2022-08-23T20:39:58.270Z,17.37
2022-08-23T20:42:28.558Z,17.38
2022-08-23T20:44:57.286Z,17.43
2022-08-23T20:47:26.077Z,17.43
2022-08-23T20:49:54.479Z,17.39
2022-08-23T20:52:22.877Z,17.36
2022-08-23T20:54:52.129Z,17.31
2022-08-23T20:57:20.532Z,17.32
2022-08-23T20:59:50.205Z,17.32
2022-08-23T21:02:18.701Z,17.30
2022-08-23T21:04:47.565Z,17.35
2022-08-23T21:07:16.740Z,17.33
2022-08-23T21:09:45.028Z,17.40
2022-08-23T21:12:13.669Z,17.32
2022-08-23T21:14:41.998Z,17.33
2022-08-23T21:17:11.785Z,17.25
2022-08-23T21:19:40.098Z,17.24
2022-08-23T21:22:08.914Z,17.25
2022-08-23T21:24:38.464Z,17.22
2022-08-23T21:27:09.531Z,17.19
2022-08-23T21:29:38.765Z,17.16
2022-08-23T21:32:08.080Z,17.13
2022-08-23T21:34:37.842Z,17.09
2022-08-23T21:37:06.656Z,17.08
2022-08-23T21:39:35.404Z,16.97
2022-08-23T21:42:14.675Z,16.98
2022-08-23T21:44:45.109Z,17.03
2022-08-23T21:47:14.876Z,17.00
2022-08-23T21:49:44.656Z,17.04
2022-08-23T21:52:13.257Z,16.98
2022-08-23T21:54:43.739Z,16.93
2022-08-23T21:57:12.690Z,16.93
2022-08-23T21:59:41.591Z,16.96
2022-08-23T22:02:10.852Z,16.81
2022-08-23T22:04:39.921Z,16.81
2022-08-23T22:07:09.640Z,16.81
2022-08-23T22:09:38.641Z,16.85
2022-08-23T22:12:08.839Z,16.85
2022-08-23T22:14:37.220Z,16.82
2022-08-23T22:17:06.439Z,16.78
2022-08-23T22:19:34.772Z,16.77
2022-08-23T22:22:03.173Z,16.75
2022-08-23T22:24:33.042Z,16.75
2022-08-23T22:27:01.908Z,16.70
2022-08-23T22:29:30.745Z,16.66
2022-08-23T22:31:59.168Z,16.64
2022-08-23T22:34:27.572Z,16.57
2022-08-23T22:36:56.762Z,16.50
2022-08-23T22:39:25.496Z,16.48
2022-08-23T22:41:55.406Z,16.45
2022-08-23T22:44:24.121Z,16.47
2022-08-23T22:46:52.757Z,16.46
2022-08-23T22:49:21.822Z,16.42
2022-08-23T22:51:55.425Z,16.38
2022-08-23T22:54:25.113Z,16.30
2022-08-23T22:56:55.488Z,16.33
2022-08-23T22:59:27.575Z,16.29
2022-08-23T23:01:58.626Z,16.23
2022-08-23T23:04:29.416Z,16.25
2022-08-23T23:06:59.242Z,16.21
2022-08-23T23:09:28.525Z,16.16
2022-08-23T23:11:58.365Z,16.12
2022-08-23T23:14:27.247Z,16.09
2022-08-23T23:16:55.718Z,16.11
2022-08-23T23:19:41.640Z,16.06
2022-08-23T23:22:11.320Z,16.06
2022-08-23T23:24:41.300Z,15.93
2022-08-23T23:27:11.141Z,15.93
2022-08-23T23:29:39.758Z,15.98
2022-08-23T23:32:08.402Z,15.94
2022-08-23T23:34:37.972Z,15.94
2022-08-23T23:37:07.219Z,15.94
2022-08-23T23:39:35.662Z,15.92
2022-08-23T23:42:04.384Z,15.88
2022-08-23T23:44:34.276Z,15.84
2022-08-23T23:47:03.731Z,15.75
2022-08-23T23:49:33.775Z,15.71
2022-08-23T23:52:04.961Z,15.72
2022-08-23T23:54:38.593Z,15.68
2022-08-23T23:57:08.011Z,15.66
2022-08-23T23:59:38.664Z,15.67
